Time;durP1;ratioP1;P1;durP2;ratioP2;P2;SDS_P1;SDS_P2;PMS_P1;PMS_P2;Temp;Humidity;BMP_temperature;BMP_pressure;BME280_temperature;BME280_humidity;BME280_pressure;Samples;Min_cycle;Max_cycle;Signal;HPM_P1;HPM_P2
2022/11/25 00:02:07;;;;;;;;;;;;;;;;;;5027625;28;20049;-66
2022/11/25 00:04:35;;;;;;;;;;;;;;;;;;5028486;28;19917;-65
2022/11/25 00:07:01;;;;;;;;;;;;;;;;;;5029065;28;19913;-65
2022/11/25 00:09:27;;;;;;;;;;;;;;;;;;5028939;28;20289;-65
2022/11/25 00:11:53;;;;;;;;;;;;;;;;;;5029593;28;19944;-66
2022/11/25 00:14:19;;;;;;;;;;;;;;;;;;5028983;28;20369;-65
2022/11/25 00:16:44;;;;;;;;;;;;;;;;;;5032205;28;19920;-65
2022/11/25 00:19:10;;;;;;;;;;;;;;;;;;5032622;28;20084;-66
2022/11/25 00:21:36;;;;;;;;;;;;;;;;;;5032567;28;19913;-64
2022/11/25 00:24:02;;;;;;;;;;;;;;;;;;5031966;28;20353;-66
2022/11/25 00:26:28;;;;;;;;;;;;;;;;;;5032466;28;20305;-66
2022/11/25 00:28:56;;;;;;;;;;;;;;;;;;5032346;28;19917;-65
2022/11/25 00:31:22;;;;;;;;;;;;;;;;;;5032773;28;19919;-65
2022/11/25 00:33:48;;;;;;;;;;;;;;;;;;5032325;28;20011;-66
2022/11/25 00:36:14;;;;;;;;;;;;;;;;;;5032237;28;20010;-65
2022/11/25 00:38:40;;;;;;;;;;;;;;;;;;5032310;28;19924;-65
2022/11/25 00:46:35;;;;;;;;;;;;;;;;;;5032000;28;19920;-66
2022/11/25 00:49:01;;;;;;;;;;;;;;;;;;5032028;28;19909;-66
2022/11/25 00:51:26;;;;;;;;;;;;;;;;;;5032036;28;20346;-65
2022/11/25 00:53:52;;;;;;;;;;;;;;;;;;5031768;28;19959;-66
2022/11/25 00:56:18;;;;;;;;;;;;;;;;;;5031945;28;20629;-65
2022/11/25 00:58:44;;;;;;;;;;;;;;;;;;5031989;28;19948;-66
2022/11/25 01:01:10;;;;;;;;;;;;;;;;;;5031620;28;19992;-65
2022/11/25 01:03:36;;;;;;;;;;;;;;;;;;5031905;28;19916;-66
2022/11/25 01:06:02;;;;;;;;;;;;;;;;;;5031956;28;19920;-65
2022/11/25 01:08:28;;;;;;;;;;;;;;;;;;5031898;28;19971;-66
2022/11/25 01:10:54;;;;;;;;;;;;;;;;;;5031625;28;20007;-66
2022/11/25 01:13:20;;;;;;;;;;;;;;;;;;5029821;28;20054;-66
2022/11/25 01:15:46;;;;;;;;;;;;;;;;;;5031400;28;19921;-66
2022/11/25 01:18:12;;;;;;;;;;;;;;;;;;5031948;28;19913;-66
2022/11/25 01:20:37;;;;;;;;;;;;;;;;;;5031638;28;19915;-65
2022/11/25 01:23:03;;;;;;;;;;;;;;;;;;5031438;28;20413;-66
2022/11/25 01:25:29;;;;;;;;;;;;;;;;;;5031706;28;19964;-65
2022/11/25 01:27:55;;;;;;;;;;;;;;;;;;5033551;28;19913;-66
2022/11/25 01:30:21;;;;;;;;;;;;;;;;;;5031262;28;19928;-66
2022/11/25 01:32:47;;;;;;;;;;;;;;;;;;5031360;28;20335;-65
2022/11/25 01:35:13;;;;;;;;;;;;;;;;;;5031673;28;19909;-65
2022/11/25 01:37:38;;;;;;;;;;;;;;;;;;5031174;28;19913;-65
2022/11/25 01:40:04;;;;;;;;;;;;;;;;;;5030798;28;20016;-64
2022/11/25 01:42:30;;;;;;;;;;;;;;;;;;5030978;28;19917;-65
2022/11/25 01:44:56;;;;;;;;;;;;;;;;;;5031442;28;19932;-65
2022/11/25 01:47:23;;;;;;;;;;;;;;;;;;5031184;28;19913;-65
2022/11/25 01:49:49;;;;;;;;;;;;;;;;;;5030827;28;20365;-65
2022/11/25 01:52:15;;;;;;;;;;;;;;;;;;5030560;28;19913;-65
2022/11/25 01:54:41;;;;;;;;;;;;;;;;;;5031352;28;19914;-66
2022/11/25 01:57:06;;;;;;;;;;;;;;;;;;5031088;28;19909;-65
2022/11/25 01:59:32;;;;;;;;;;;;;;;;;;5030501;28;20357;-65
2022/11/25 02:01:58;;;;;;;;;;;;;;;;;;5030859;28;19987;-65
2022/11/25 02:04:24;;;;;;;;;;;;;;;;;;5030830;28;20386;-65
2022/11/25 02:06:50;;;;;;;;;;;;;;;;;;5030701;28;19909;-64
2022/11/25 02:09:16;;;;;;;;;;;;;;;;;;5030201;28;19917;-66
2022/11/25 02:11:42;;;;;;;;;;;;;;;;;;5031038;28;20020;-66
2022/11/25 02:14:08;;;;;;;;;;;;;;;;;;5029904;28;19931;-65
2022/11/25 02:16:33;;;;;;;;;;;;;;;;;;5030582;28;19913;-65
2022/11/25 02:18:59;;;;;;;;;;;;;;;;;;5030381;28;19974;-65
2022/11/25 02:21:25;;;;;;;;;;;;;;;;;;5030366;28;19916;-65
2022/11/25 02:23:51;;;;;;;;;;;;;;;;;;5030041;28;19943;-65
2022/11/25 02:26:17;;;;;;;;;;;;;;;;;;5029800;28;20356;-65
2022/11/25 02:28:43;;;;;;;;;;;;;;;;;;5031518;28;20035;-66
2022/11/25 02:31:09;;;;;;;;;;;;;;;;;;5030412;28;19921;-66
2022/11/25 02:33:35;;;;;;;;;;;;;;;;;;5030549;28;20370;-65
2022/11/25 02:36:01;;;;;;;;;;;;;;;;;;5029840;28;19916;-64
2022/11/25 02:38:27;;;;;;;;;;;;;;;;;;5029753;28;20369;-66
2022/11/25 02:40:53;;;;;;;;;;;;;;;;;;5029902;28;19964;-65
2022/11/25 02:43:18;;;;;;;;;;;;;;;;;;5029476;28;20293;-65
2022/11/25 02:45:44;;;;;;;;;;;;;;;;;;5029912;28;19913;-66
2022/11/25 02:48:10;;;;;;;;;;;;;;;;;;5029405;28;19917;-66
2022/11/25 02:50:36;;;;;;;;;;;;;;;;;;5030005;28;19952;-66
2022/11/25 02:53:02;;;;;;;;;;;;;;;;;;5029789;28;20274;-65
2022/11/25 02:55:28;;;;;;;;;;;;;;;;;;5029571;28;19915;-65
2022/11/25 02:57:54;;;;;;;;;;;;;;;;;;5029645;28;19909;-66
2022/11/25 03:00:20;;;;;;;;;;;;;;;;;;5029300;28;20358;-66
2022/11/25 03:02:46;;;;;;;;;;;;;;;;;;5029210;28;19913;-66
2022/11/25 03:05:11;;;;;;;;;;;;;;;;;;5029354;28;20336;-65
2022/11/25 03:07:38;;;;;;;;;;;;;;;;;;5029401;28;20020;-65
2022/11/25 03:10:04;;;;;;;;;;;;;;;;;;5029463;28;19921;-65
2022/11/25 03:12:29;;;;;;;;;;;;;;;;;;5028913;28;19913;-65
2022/11/25 03:14:56;;;;;;;;;;;;;;;;;;5029412;28;20368;-65
2022/11/25 03:17:21;;;;;;;;;;;;;;;;;;5028818;28;19913;-65
2022/11/25 03:19:47;;;;;;;;;;;;;;;;;;5029544;28;19909;-66
2022/11/25 03:22:13;;;;;;;;;;;;;;;;;;5029437;28;19948;-65
2022/11/25 03:24:39;;;;;;;;;;;;;;;;;;5029180;28;20302;-65
2022/11/25 03:27:05;;;;;;;;;;;;;;;;;;5030190;28;19978;-65
2022/11/25 03:29:31;;;;;;;;;;;;;;;;;;5029359;28;19917;-65
2022/11/25 03:31:57;;;;;;;;;;;;;;;;;;5030045;28;19999;-64
2022/11/25 03:34:23;;;;;;;;;;;;;;;;;;5029093;28;19913;-64
2022/11/25 03:36:49;;;;;;;;;;;;;;;;;;5029327;28;19931;-65
2022/11/25 03:39:15;;;;;;;;;;;;;;;;;;5029501;28;20642;-65
2022/11/25 03:41:41;;;;;;;;;;;;;;;;;;5027533;28;20278;-65
2022/11/25 03:44:07;;;;;;;;;;;;;;;;;;5029490;28;19920;-65
2022/11/25 03:46:32;;;;;;;;;;;;;;;;;;5029196;28;19920;-65
2022/11/25 03:48:58;;;;;;;;;;;;;;;;;;5029479;28;20393;-65
2022/11/25 03:51:24;;;;;;;;;;;;;;;;;;5032102;28;19924;-65
2022/11/25 03:53:50;;;;;;;;;;;;;;;;;;5032655;28;19944;-65
2022/11/25 03:56:16;;;;;;;;;;;;;;;;;;5032975;28;19958;-65
2022/11/25 03:58:42;;;;;;;;;;;;;;;;;;5033367;28;20278;-65
2022/11/25 04:01:08;;;;;;;;;;;;;;;;;;5026836;28;19913;-64
2022/11/25 04:03:34;;;;;;;;;;;;;;;;;;5032819;28;20438;-65
2022/11/25 04:05:59;;;;;;;;;;;;;;;;;;5033071;28;19909;-65
2022/11/25 04:08:26;;;;;;;;;;;;;;;;;;5032526;28;20397;-66
2022/11/25 04:10:52;;;;;;;;;;;;;;;;;;5032347;28;20011;-65
2022/11/25 04:13:18;;;;;;;;;;;;;;;;;;5032809;28;20000;-65
2022/11/25 04:15:44;;;;;;;;;;;;;;;;;;5033140;28;19920;-65
2022/11/25 04:18:10;;;;;;;;;;;;;;;;;;5032639;28;19913;-65
2022/11/25 04:20:36;;;;;;;;;;;;;;;;;;5032331;28;19915;-64
2022/11/25 04:23:01;;;;;;;;;;;;;;;;;;5032467;28;19928;-64
2022/11/25 04:25:27;;;;;;;;;;;;;;;;;;5032231;28;19944;-63
2022/11/25 04:27:53;;;;;;;;;;;;;;;;;;5033171;28;19913;-62
2022/11/25 04:30:19;;;;;;;;;;;;;;;;;;5031929;28;19925;-63
2022/11/25 04:32:45;;;;;;;;;;;;;;;;;;5032583;28;19913;-64
2022/11/25 04:35:11;;;;;;;;;;;;;;;;;;5032959;28;19913;-64
2022/11/25 04:37:37;;;;;;;;;;;;;;;;;;5032161;28;20266;-64
2022/11/25 04:40:03;;;;;;;;;;;;;;;;;;5031876;28;19921;-64
2022/11/25 04:42:33;;;;;;;;;;;;;;;;;;5032293;28;19913;-63
2022/11/25 04:44:59;;;;;;;;;;;;;;;;;;5032110;28;19913;-64
2022/11/25 04:47:24;;;;;;;;;;;;;;;;;;5032181;28;20439;-64
2022/11/25 04:49:50;;;;;;;;;;;;;;;;;;5031907;28;20016;-65
2022/11/25 04:52:16;;;;;;;;;;;;;;;;;;5031592;28;19999;-64
2022/11/25 04:54:42;;;;;;;;;;;;;;;;;;5031842;28;19909;-64
2022/11/25 04:57:08;;;;;;;;;;;;;;;;;;5031956;28;20350;-65
2022/11/25 04:59:40;;;;;;;;;;;;;;;;;;5031530;28;19913;-66
2022/11/25 05:02:06;;;;;;;;;;;;;;;;;;5030330;28;20385;-66
2022/11/25 05:04:32;;;;;;;;;;;;;;;;;;5031752;28;19914;-65
2022/11/25 05:06:57;;;;;;;;;;;;;;;;;;5031647;28;19967;-65
2022/11/25 05:09:23;;;;;;;;;;;;;;;;;;5031982;28;19942;-67
2022/11/25 05:11:49;;;;;;;;;;;;;;;;;;5031666;28;19916;-66
2022/11/25 05:14:15;;;;;;;;;;;;;;;;;;5031045;28;19913;-67
2022/11/25 05:16:41;;;;;;;;;;;;;;;;;;5031468;28;19914;-66
2022/11/25 05:19:07;;;;;;;;;;;;;;;;;;5031565;28;19913;-67
2022/11/25 05:21:33;;;;;;;;;;;;;;;;;;5031587;28;19913;-67
2022/11/25 05:23:59;;;;;;;;;;;;;;;;;;5030623;28;20020;-65
2022/11/25 05:26:25;;;;;;;;;;;;;;;;;;5031042;28;20262;-67
2022/11/25 05:28:50;;;;;;;;;;;;;;;;;;5030181;28;19944;-67
2022/11/25 05:31:16;;;;;;;;;;;;;;;;;;5031431;28;19948;-66
2022/11/25 05:33:42;;;;;;;;;;;;;;;;;;5031414;28;19925;-67
2022/11/25 05:36:08;;;;;;;;;;;;;;;;;;5031064;28;20433;-67
2022/11/25 05:38:34;;;;;;;;;;;;;;;;;;5031059;28;19913;-66
2022/11/25 05:41:00;;;;;;;;;;;;;;;;;;5031156;28;19974;-66
2022/11/25 05:43:26;;;;;;;;;;;;;;;;;;5031095;28;19913;-66
2022/11/25 05:45:52;;;;;;;;;;;;;;;;;;5031118;28;19909;-66
2022/11/25 05:48:17;;;;;;;;;;;;;;;;;;5030873;28;20461;-67
2022/11/25 05:50:43;;;;;;;;;;;;;;;;;;5030560;28;19927;-65
2022/11/25 05:53:10;;;;;;;;;;;;;;;;;;5030789;28;19920;-67
2022/11/25 05:55:36;;;;;;;;;;;;;;;;;;5030687;28;19916;-66
2022/11/25 05:58:03;;;;;;;;;;;;;;;;;;5030891;28;19909;-66
2022/11/25 06:00:29;;;;;;;;;;;;;;;;;;5030496;28;20024;-66
2022/11/25 06:02:55;;;;;;;;;;;;;;;;;;5029188;28;19999;-67
2022/11/25 06:05:21;;;;;;;;;;;;;;;;;;5029892;28;19999;-63
2022/11/25 06:07:47;;;;;;;;;;;;;;;;;;5030151;28;19983;-64
2022/11/25 06:10:13;;;;;;;;;;;;;;;;;;5030152;28;19921;-65
2022/11/25 06:12:38;;;;;;;;;;;;;;;;;;5030165;28;19917;-70
2022/11/25 06:15:04;;;;;;;;;;;;;;;;;;5029412;28;20023;-71
2022/11/25 06:17:30;;;;;;;;;;;;;;;;;;5029941;28;19920;-69
2022/11/25 06:19:56;;;;;;;;;;;;;;;;;;5029548;28;20494;-70
2022/11/25 06:22:22;;;;;;;;;;;;;;;;;;5029536;28;19919;-69
2022/11/25 06:24:48;;;;;;;;;;;;;;;;;;5029544;28;20274;-69
2022/11/25 06:27:14;;;;;;;;;;;;;;;;;;5029436;28;19998;-68
2022/11/25 06:29:40;;;;;;;;;;;;;;;;;;5029162;28;19924;-69
2022/11/25 06:32:05;;;;;;;;;;;;;;;;;;5028824;28;20032;-69
2022/11/25 06:34:31;;;;;;;;;;;;;;;;;;5029523;28;19913;-67
2022/11/25 06:36:57;;;;;;;;;;;;;;;;;;5029341;28;19913;-68
2022/11/25 06:39:23;;;;;;;;;;;;;;;;;;5029641;28;19909;-69
2022/11/25 06:41:49;;;;;;;;;;;;;;;;;;5029080;28;19909;-69
2022/11/25 06:44:15;;;;;;;;;;;;;;;;;;5029728;28;19970;-69
2022/11/25 06:46:41;;;;;;;;;;;;;;;;;;5029352;28;19918;-69
2022/11/25 06:49:07;;;;;;;;;;;;;;;;;;5029227;28;19909;-69
2022/11/25 06:51:33;;;;;;;;;;;;;;;;;;5029524;28;19924;-69
2022/11/25 06:53:58;;;;;;;;;;;;;;;;;;5029514;28;19971;-68
2022/11/25 06:56:24;;;;;;;;;;;;;;;;;;5030080;28;20003;-67
2022/11/25 06:58:50;;;;;;;;;;;;;;;;;;5029630;28;20266;-67
2022/11/25 07:01:16;;;;;;;;;;;;;;;;;;5028754;28;19913;-69
2022/11/25 07:03:42;;;;;;;;;;;;;;;;;;5029403;28;19923;-67
2022/11/25 07:06:08;;;;;;;;;;;;;;;;;;5029656;28;19959;-69
2022/11/25 07:08:34;;;;;;;;;;;;;;;;;;5029757;28;20377;-67
2022/11/25 07:11:00;;;;;;;;;;;;;;;;;;5029280;28;20015;-70
2022/11/25 07:13:26;;;;;;;;;;;;;;;;;;5029085;28;20321;-69
2022/11/25 07:15:51;;;;;;;;;;;;;;;;;;5029472;28;19913;-69
2022/11/25 07:18:17;;;;;;;;;;;;;;;;;;5029661;28;20374;-69
2022/11/25 07:20:43;;;;;;;;;;;;;;;;;;5029126;28;19910;-69
2022/11/25 07:23:09;;;;;;;;;;;;;;;;;;5029559;28;19956;-69
2022/11/25 07:25:35;;;;;;;;;;;;;;;;;;5028706;28;20293;-69
2022/11/25 07:28:01;;;;;;;;;;;;;;;;;;5035461;28;20012;-68
2022/11/25 07:30:27;;;;;;;;;;;;;;;;;;5028784;28;19963;-69
2022/11/25 07:32:53;;;;;;;;;;;;;;;;;;5029175;28;19913;-69
2022/11/25 07:35:19;;;;;;;;;;;;;;;;;;5029232;28;19910;-69
2022/11/25 07:37:45;;;;;;;;;;;;;;;;;;5029035;28;20393;-69
2022/11/25 07:40:11;;;;;;;;;;;;;;;;;;5028944;28;19913;-68
2022/11/25 07:42:37;;;;;;;;;;;;;;;;;;5029130;28;20027;-69
2022/11/25 07:45:03;;;;;;;;;;;;;;;;;;5029412;28;19916;-69
2022/11/25 07:47:29;;;;;;;;;;;;;;;;;;5028621;28;19913;-69
2022/11/25 07:49:55;;;;;;;;;;;;;;;;;;5029337;28;20451;-69
2022/11/25 07:52:20;;;;;;;;;;;;;;;;;;5028972;28;19913;-69
2022/11/25 07:54:46;;;;;;;;;;;;;;;;;;5029074;28;19913;-69
2022/11/25 07:57:12;;;;;;;;;;;;;;;;;;5029441;28;19940;-69
2022/11/25 07:59:40;;;;;;;;;;;;;;;;;;5029260;28;20353;-69
2022/11/25 08:02:06;;;;;;;;;;;;;;;;;;5028710;28;19917;-69
2022/11/25 08:04:31;;;;;;;;;;;;;;;;;;5028905;28;19913;-69
2022/11/25 08:06:57;;;;;;;;;;;;;;;;;;5029585;28;20627;-69
2022/11/25 08:09:24;;;;;;;;;;;;;;;;;;5028863;28;19909;-69
2022/11/25 08:11:49;;;;;;;;;;;;;;;;;;5029252;28;20086;-69
2022/11/25 08:14:15;;;;;;;;;;;;;;;;;;5029247;28;20025;-69
2022/11/25 08:16:41;;;;;;;;;;;;;;;;;;5028235;28;19967;-69
2022/11/25 08:19:08;;;;;;;;;;;;;;;;;;5028791;28;19913;-68
2022/11/25 08:21:34;;;;;;;;;;;;;;;;;;5027601;28;20007;-69
2022/11/25 08:24:01;;;;;;;;;;;;;;;;;;5028269;28;20047;-69
2022/11/25 08:26:31;;;;;;;;;;;;;;;;;;5029420;28;19925;-69
2022/11/25 08:28:57;;;;;;;;;;;;;;;;;;5028187;28;20384;-69
2022/11/25 08:31:23;;;;;;;;;;;;;;;;;;5028561;28;19967;-68
2022/11/25 08:33:49;;;;;;;;;;;;;;;;;;5028922;28;19920;-68
2022/11/25 08:36:15;;;;;;;;;;;;;;;;;;5029727;28;19909;-68
2022/11/25 08:38:41;;;;;;;;;;;;;;;;;;5032153;28;19920;-68
2022/11/25 08:41:06;;;;;;;;;;;;;;;;;;5032434;28;19920;-69
2022/11/25 08:43:32;;;;;;;;;;;;;;;;;;5032264;28;19909;-69
2022/11/25 08:45:58;;;;;;;;;;;;;;;;;;5031650;28;20302;-68
2022/11/25 08:48:24;;;;;;;;;;;;;;;;;;5032247;28;19917;-69
2022/11/25 08:50:50;;;;;;;;;;;;;;;;;;5032175;28;19917;-69
2022/11/25 08:53:16;;;;;;;;;;;;;;;;;;5032003;28;19919;-69
2022/11/25 08:55:42;;;;;;;;;;;;;;;;;;5032269;28;20440;-69
2022/11/25 08:58:10;;;;;;;;;;;;;;;;;;5031362;28;19913;-69
2022/11/25 09:00:35;;;;;;;;;;;;;;;;;;5031837;28;19913;-69
2022/11/25 09:03:01;;;;;;;;;;;;;;;;;;5031819;28;19913;-70
2022/11/25 09:05:28;;;;;;;;;;;;;;;;;;5031858;28;20016;-69
2022/11/25 09:07:54;;;;;;;;;;;;;;;;;;5031618;28;19909;-69
2022/11/25 09:10:20;;;;;;;;;;;;;;;;;;5032127;28;20386;-69
2022/11/25 09:12:46;;;;;;;;;;;;;;;;;;5031858;28;19940;-69
2022/11/25 09:15:12;;;;;;;;;;;;;;;;;;5031101;28;20373;-69
2022/11/25 09:17:37;;;;;;;;;;;;;;;;;;5031475;28;19920;-69
2022/11/25 09:20:04;;;;;;;;;;;;;;;;;;5031922;28;19913;-69
2022/11/25 09:22:30;;;;;;;;;;;;;;;;;;5031252;28;19935;-69
2022/11/25 09:24:55;;;;;;;;;;;;;;;;;;5032232;28;20418;-69
2022/11/25 09:27:21;;;;;;;;;;;;;;;;;;5037168;28;19939;-68
2022/11/25 09:29:47;;;;;;;;;;;;;;;;;;5031249;28;20016;-69
2022/11/25 09:32:13;;;;;;;;;;;;;;;;;;5031694;28;19917;-69
2022/11/25 09:34:39;;;;;;;;;;;;;;;;;;5031281;28;19944;-69
2022/11/25 09:37:05;;;;;;;;;;;;;;;;;;5031645;28;19956;-68
2022/11/25 09:39:33;;;;;;;;;;;;;;;;;;5031226;28;20366;-69
2022/11/25 09:47:29;;;;;;;;;;;;;;;;;;5031128;28;19995;-69
2022/11/25 09:49:55;;;;;;;;;;;;;;;;;;5031353;28;19917;-69
2022/11/25 09:52:20;;;;;;;;;;;;;;;;;;5030933;28;20377;-69
2022/11/25 09:54:46;;;;;;;;;;;;;;;;;;5031133;28;19919;-68
2022/11/25 09:57:12;;;;;;;;;;;;;;;;;;5031258;28;20365;-68
2022/11/25 09:59:38;;;;;;;;;;;;;;;;;;5030871;28;20004;-68
2022/11/25 10:02:06;;;;;;;;;;;;;;;;;;5030313;28;21538;-69
2022/11/25 10:04:32;;;;;;;;;;;;;;;;;;5030480;28;19960;-68
2022/11/25 10:06:59;;;;;;;;;;;;;;;;;;5030580;28;19920;-69
2022/11/25 10:09:25;;;;;;;;;;;;;;;;;;5030898;28;19919;-69
2022/11/25 10:11:51;;;;;;;;;;;;;;;;;;5030336;28;19913;-68
2022/11/25 10:14:17;;;;;;;;;;;;;;;;;;5030263;28;19936;-68
2022/11/25 10:16:43;;;;;;;;;;;;;;;;;;5030959;28;19909;-68
2022/11/25 10:19:09;;;;;;;;;;;;;;;;;;5030500;28;19920;-68
2022/11/25 10:21:35;;;;;;;;;;;;;;;;;;5030308;28;20445;-68
2022/11/25 10:24:01;;;;;;;;;;;;;;;;;;5030516;28;19925;-68
2022/11/25 10:26:27;;;;;;;;;;;;;;;;;;5029898;28;20336;-68
2022/11/25 10:28:54;;;;;;;;;;;;;;;;;;5035211;28;19959;-68
2022/11/25 10:31:20;;;;;;;;;;;;;;;;;;5029990;28;19943;-68
2022/11/25 10:33:46;;;;;;;;;;;;;;;;;;5030422;28;20644;-68
2022/11/25 10:36:12;;;;;;;;;;;;;;;;;;5030181;28;19913;-68
2022/11/25 10:38:38;;;;;;;;;;;;;;;;;;5029933;28;19931;-68
2022/11/25 10:41:03;;;;;;;;;;;;;;;;;;5030042;28;19960;-67
2022/11/25 10:43:29;;;;;;;;;;;;;;;;;;5030488;28;20378;-68
2022/11/25 10:45:55;;;;;;;;;;;;;;;;;;5030225;28;20262;-68
2022/11/25 10:48:21;;;;;;;;;;;;;;;;;;5029681;28;20388;-68
2022/11/25 10:50:50;;;;;;;;;;;;;;;;;;5030418;28;19925;-68
2022/11/25 10:53:16;;;;;;;;;;;;;;;;;;5029754;28;20397;-68
2022/11/25 10:55:42;;;;;;;;;;;;;;;;;;5029696;28;19909;-68
2022/11/25 10:58:08;;;;;;;;;;;;;;;;;;5029496;28;19921;-68
2022/11/25 11:00:34;;;;;;;;;;;;;;;;;;5028751;28;19913;-68
2022/11/25 11:03:00;;;;;;;;;;;;;;;;;;5029966;28;19909;-68
2022/11/25 11:05:27;;;;;;;;;;;;;;;;;;5030163;28;20004;-68
2022/11/25 11:07:53;;;;;;;;;;;;;;;;;;5029653;28;19919;-69
2022/11/25 11:10:19;;;;;;;;;;;;;;;;;;5029403;28;19917;-67
2022/11/25 11:12:45;;;;;;;;;;;;;;;;;;5029677;28;19909;-68
2022/11/25 11:15:11;;;;;;;;;;;;;;;;;;5029820;28;19915;-69
2022/11/25 11:17:37;;;;;;;;;;;;;;;;;;5029369;28;19926;-68
2022/11/25 11:20:02;;;;;;;;;;;;;;;;;;5028262;28;19960;-68
2022/11/25 11:22:28;;;;;;;;;;;;;;;;;;5028305;28;19909;-67
2022/11/25 11:24:54;;;;;;;;;;;;;;;;;;5029224;28;20458;-68
2022/11/25 11:27:20;;;;;;;;;;;;;;;;;;5033853;28;19909;-69
2022/11/25 11:29:46;;;;;;;;;;;;;;;;;;5029621;28;20381;-69
2022/11/25 11:32:12;;;;;;;;;;;;;;;;;;5028115;28;19917;-69
2022/11/25 11:34:38;;;;;;;;;;;;;;;;;;5029314;28;19941;-70
2022/11/25 11:37:04;;;;;;;;;;;;;;;;;;5029311;28;19913;-69
2022/11/25 11:39:29;;;;;;;;;;;;;;;;;;5028910;28;19927;-69
2022/11/25 11:41:55;;;;;;;;;;;;;;;;;;5029286;28;20007;-69
2022/11/25 11:44:21;;;;;;;;;;;;;;;;;;5029620;28;20282;-69
2022/11/25 11:46:47;;;;;;;;;;;;;;;;;;5029113;28;19914;-69
2022/11/25 11:49:13;;;;;;;;;;;;;;;;;;5029076;28;20714;-69
2022/11/25 11:51:39;;;;;;;;;;;;;;;;;;5029506;28;19929;-69
2022/11/25 11:54:06;;;;;;;;;;;;;;;;;;5028598;28;19964;-69
2022/11/25 11:56:32;;;;;;;;;;;;;;;;;;5029241;28;19971;-69
2022/11/25 11:58:58;;;;;;;;;;;;;;;;;;5029092;28;19917;-68
2022/11/25 12:01:24;;;;;;;;;;;;;;;;;;5029005;28;20433;-69
2022/11/25 12:03:49;;;;;;;;;;;;;;;;;;5029478;28;19913;-69
2022/11/25 12:06:15;;;;;;;;;;;;;;;;;;5028841;28;19920;-69
2022/11/25 12:08:41;;;;;;;;;;;;;;;;;;5028427;28;20640;-67
2022/11/25 12:11:07;;;;;;;;;;;;;;;;;;5030355;28;19964;-68
2022/11/25 12:13:33;;;;;;;;;;;;;;;;;;5032968;28;20378;-68
2022/11/25 12:15:59;;;;;;;;;;;;;;;;;;5032534;28;19955;-68
2022/11/25 12:18:25;;;;;;;;;;;;;;;;;;5032736;28;19917;-68
2022/11/25 12:20:51;;;;;;;;;;;;;;;;;;5032793;28;20365;-67
2022/11/25 12:23:16;;;;;;;;;;;;;;;;;;5032272;28;19932;-67
2022/11/25 12:25:42;;;;;;;;;;;;;;;;;;5032522;28;19967;-68
2022/11/25 12:28:08;;;;;;;;;;;;;;;;;;5036680;28;19952;-68
2022/11/25 12:30:34;;;;;;;;;;;;;;;;;;5032823;28;19917;-66
2022/11/25 12:33:00;;;;;;;;;;;;;;;;;;5031864;28;19967;-68
2022/11/25 12:35:26;;;;;;;;;;;;;;;;;;5032398;28;19959;-67
2022/11/25 12:37:52;;;;;;;;;;;;;;;;;;5031788;28;19909;-68
2022/11/25 12:40:18;;;;;;;;;;;;;;;;;;5032039;28;19913;-68
2022/11/25 12:42:44;;;;;;;;;;;;;;;;;;5031920;28;20054;-67
2022/11/25 12:45:09;;;;;;;;;;;;;;;;;;5032125;28;20267;-68
2022/11/25 12:47:35;;;;;;;;;;;;;;;;;;5031850;28;19913;-67
2022/11/25 12:50:01;;;;;;;;;;;;;;;;;;5031879;28;19932;-68
2022/11/25 12:52:28;;;;;;;;;;;;;;;;;;5031514;28;19932;-68
2022/11/25 12:54:53;;;;;;;;;;;;;;;;;;5031978;28;19974;-65
2022/11/25 12:57:19;;;;;;;;;;;;;;;;;;5032183;28;19917;-68
2022/11/25 12:59:45;;;;;;;;;;;;;;;;;;5031706;28;20385;-67
2022/11/25 13:02:11;;;;;;;;;;;;;;;;;;5032172;28;19909;-68
2022/11/25 13:04:37;;;;;;;;;;;;;;;;;;5031709;28;19917;-67
2022/11/25 13:07:03;;;;;;;;;;;;;;;;;;5031449;28;19917;-67
2022/11/25 13:09:29;;;;;;;;;;;;;;;;;;5031492;28;19913;-67
2022/11/25 13:11:55;;;;;;;;;;;;;;;;;;5032121;28;19917;-67
2022/11/25 13:14:20;;;;;;;;;;;;;;;;;;5031230;28;19919;-67
2022/11/25 13:16:46;;;;;;;;;;;;;;;;;;5031620;28;20408;-67
2022/11/25 13:19:12;;;;;;;;;;;;;;;;;;5031449;28;19910;-67
2022/11/25 13:21:38;;;;;;;;;;;;;;;;;;5029784;28;20020;-68
2022/11/25 13:24:05;;;;;;;;;;;;;;;;;;5030486;28;19932;-67
2022/11/25 13:26:32;;;;;;;;;;;;;;;;;;5031474;28;20023;-68
2022/11/25 13:28:58;;;;;;;;;;;;;;;;;;5034073;28;19910;-67
2022/11/25 13:31:24;;;;;;;;;;;;;;;;;;5031404;28;19921;-67
2022/11/25 13:33:50;;;;;;;;;;;;;;;;;;5030854;28;19917;-66
2022/11/25 13:36:16;;;;;;;;;;;;;;;;;;5031199;28;19953;-67
2022/11/25 13:38:42;;;;;;;;;;;;;;;;;;5030804;28;20374;-67
2022/11/25 13:41:08;;;;;;;;;;;;;;;;;;5031476;28;19992;-67
2022/11/25 13:43:34;;;;;;;;;;;;;;;;;;5030898;28;19909;-66
2022/11/25 13:46:00;;;;;;;;;;;;;;;;;;5031417;28;19913;-68
2022/11/25 13:48:26;;;;;;;;;;;;;;;;;;5031059;28;19917;-67
2022/11/25 13:50:52;;;;;;;;;;;;;;;;;;5030829;28;19975;-67
2022/11/25 13:53:18;;;;;;;;;;;;;;;;;;5031044;28;19909;-67
2022/11/25 13:55:44;;;;;;;;;;;;;;;;;;5030645;28;19909;-67
2022/11/25 13:58:10;;;;;;;;;;;;;;;;;;5030577;28;19915;-67
2022/11/25 14:00:36;;;;;;;;;;;;;;;;;;5030945;28;19967;-67
2022/11/25 14:03:02;;;;;;;;;;;;;;;;;;5030602;28;19919;-67
2022/11/25 14:05:27;;;;;;;;;;;;;;;;;;5030421;28;19913;-67
2022/11/25 14:07:53;;;;;;;;;;;;;;;;;;5030784;28;20282;-67
2022/11/25 14:10:19;;;;;;;;;;;;;;;;;;5030427;28;19960;-67
2022/11/25 14:12:45;;;;;;;;;;;;;;;;;;5021313;28;20428;-68
2022/11/25 14:15:11;;;;;;;;;;;;;;;;;;5019711;28;19917;-68
2022/11/25 14:17:37;;;;;;;;;;;;;;;;;;5025892;28;20448;-67
2022/11/25 14:20:03;;;;;;;;;;;;;;;;;;5023041;28;19963;-68
2022/11/25 14:22:29;;;;;;;;;;;;;;;;;;5024918;28;19913;-68
2022/11/25 14:24:55;;;;;;;;;;;;;;;;;;5020609;28;19921;-67
2022/11/25 14:27:21;;;;;;;;;;;;;;;;;;5024677;28;19966;-68
2022/11/25 14:29:47;;;;;;;;;;;;;;;;;;5023651;28;19925;-68
2022/11/25 14:32:13;;;;;;;;;;;;;;;;;;5019556;28;19921;-68
2022/11/25 14:34:39;;;;;;;;;;;;;;;;;;5021702;28;19917;-68
2022/11/25 14:37:05;;;;;;;;;;;;;;;;;;5022028;28;19913;-67
2022/11/25 14:39:31;;;;;;;;;;;;;;;;;;5024687;28;19952;-68
2022/11/25 14:41:57;;;;;;;;;;;;;;;;;;5022110;28;19943;-67
2022/11/25 14:44:22;;;;;;;;;;;;;;;;;;5023158;28;20035;-68
2022/11/25 14:46:48;;;;;;;;;;;;;;;;;;5018465;28;19925;-64
2022/11/25 14:49:14;;;;;;;;;;;;;;;;;;5023425;28;19917;-68
2022/11/25 14:51:40;;;;;;;;;;;;;;;;;;5020374;28;19921;-67
2022/11/25 14:54:06;;;;;;;;;;;;;;;;;;5023665;28;19958;-67
2022/11/25 14:56:32;;;;;;;;;;;;;;;;;;5023499;28;19914;-68
2022/11/25 14:58:58;;;;;;;;;;;;;;;;;;5024209;28;19916;-67
2022/11/25 15:01:24;;;;;;;;;;;;;;;;;;5024160;28;19943;-68
2022/11/25 15:03:50;;;;;;;;;;;;;;;;;;5024405;28;19913;-68
2022/11/25 15:06:18;;;;;;;;;;;;;;;;;;5023704;28;19917;-67
2022/11/25 15:08:44;;;;;;;;;;;;;;;;;;5023502;28;19936;-68
2022/11/25 15:11:10;;;;;;;;;;;;;;;;;;5021867;28;20309;-67
2022/11/25 15:13:37;;;;;;;;;;;;;;;;;;5020520;28;19952;-68
2022/11/25 15:16:03;;;;;;;;;;;;;;;;;;5022483;28;19917;-68
2022/11/25 15:18:29;;;;;;;;;;;;;;;;;;5020178;28;19920;-67
2022/11/25 15:20:55;;;;;;;;;;;;;;;;;;5023854;28;19913;-65
2022/11/25 15:23:21;;;;;;;;;;;;;;;;;;5022548;28;19925;-68
2022/11/25 15:25:47;;;;;;;;;;;;;;;;;;5024261;28;19924;-67
2022/11/25 15:28:13;;;;;;;;;;;;;;;;;;5023546;28;19920;-67
2022/11/25 15:30:38;;;;;;;;;;;;;;;;;;5023785;28;20067;-68
2022/11/25 15:33:05;;;;;;;;;;;;;;;;;;5020101;28;19920;-68
2022/11/25 15:35:31;;;;;;;;;;;;;;;;;;5024262;28;19924;-67
2022/11/25 15:37:57;;;;;;;;;;;;;;;;;;5018258;28;20119;-66
2022/11/25 15:40:23;;;;;;;;;;;;;;;;;;5024941;28;19914;-68
2022/11/25 15:42:49;;;;;;;;;;;;;;;;;;5018496;28;20374;-68
2022/11/25 15:45:15;;;;;;;;;;;;;;;;;;5023757;28;19919;-67
2022/11/25 15:47:41;;;;;;;;;;;;;;;;;;5025754;28;19924;-68
2022/11/25 15:50:06;;;;;;;;;;;;;;;;;;5027984;28;20020;-68
2022/11/25 15:52:32;;;;;;;;;;;;;;;;;;5027927;28;19924;-68
2022/11/25 15:54:58;;;;;;;;;;;;;;;;;;5028595;28;19933;-68
2022/11/25 15:57:24;;;;;;;;;;;;;;;;;;5027781;28;20058;-67
2022/11/25 15:59:50;;;;;;;;;;;;;;;;;;5028700;28;20294;-66
2022/11/25 16:02:16;;;;;;;;;;;;;;;;;;5024857;28;19917;-68
2022/11/25 16:04:42;;;;;;;;;;;;;;;;;;5029256;28;19920;-68
2022/11/25 16:07:08;;;;;;;;;;;;;;;;;;5027455;28;19928;-67
2022/11/25 16:09:34;;;;;;;;;;;;;;;;;;5028375;28;20555;-68
2022/11/25 16:12:00;;;;;;;;;;;;;;;;;;5027505;28;19921;-67
2022/11/25 16:14:26;;;;;;;;;;;;;;;;;;5027714;28;19921;-69
2022/11/25 16:16:52;;;;;;;;;;;;;;;;;;5026406;28;20309;-66
2022/11/25 16:19:18;;;;;;;;;;;;;;;;;;5028472;28;20279;-67
2022/11/25 16:21:43;;;;;;;;;;;;;;;;;;5028248;28;19979;-68
2022/11/25 16:24:09;;;;;;;;;;;;;;;;;;5040095;28;19940;-68
2022/11/25 16:26:35;;;;;;;;;;;;;;;;;;5028385;28;20007;-67
2022/11/25 16:29:01;;;;;;;;;;;;;;;;;;5026351;28;20014;-66
2022/11/25 16:31:27;;;;;;;;;;;;;;;;;;5020661;28;19921;-65
2022/11/25 16:33:53;;;;;;;;;;;;;;;;;;5026285;28;19921;-68
2022/11/25 16:36:19;;;;;;;;;;;;;;;;;;5028149;28;19917;-67
2022/11/25 16:38:45;;;;;;;;;;;;;;;;;;5027422;28;19924;-66
2022/11/25 16:41:11;;;;;;;;;;;;;;;;;;5027061;28;19917;-67
2022/11/25 16:43:38;;;;;;;;;;;;;;;;;;5026477;28;19915;-69
2022/11/25 16:46:04;;;;;;;;;;;;;;;;;;5025760;28;20075;-68
2022/11/25 16:48:30;;;;;;;;;;;;;;;;;;5028425;28;20444;-66